Time;durP1;ratioP1;P1;durP2;ratioP2;P2;SDS_P1;SDS_P2;PMS_P1;PMS_P2;Temp;Humidity;BMP_temperature;BMP_pressure;BME280_temperature;BME280_humidity;BME280_pressure;Samples;Min_cycle;Max_cycle;Signal;HPM_P1;HPM_P2
2023/06/06 00:00:23;;;;;;;3.13;2.93;;;19.50;81.40;;;;;;10350785;28;20199;-82
2023/06/06 00:05:27;;;;;;;3.50;3.30;;;19.40;81.10;;;;;;10348850;28;20215;-83
2023/06/06 00:10:30;;;;;;;3.90;3.60;;;19.30;81.20;;;;;;10375657;28;20573;-84
2023/06/06 00:15:32;;;;;;;3.83;3.47;;;19.30;81.50;;;;;;10365670;28;20314;-83
2023/06/06 00:20:35;;;;;;;3.90;3.60;;;19.20;81.00;;;;;;10379313;28;20208;-82
2023/06/06 00:25:39;;;;;;;3.53;3.23;;;19.20;81.30;;;;;;10383731;28;20230;-84
2023/06/06 00:30:41;;;;;;;3.70;3.40;;;19.10;81.10;;;;;;10385686;28;20269;-83
2023/06/06 00:35:43;;;;;;;3.50;3.30;;;19.00;81.80;;;;;;10381541;28;20203;-82
2023/06/06 00:40:46;;;;;;;4.10;3.70;;;19.00;80.70;;;;;;10376092;28;20212;-83
2023/06/06 00:45:50;;;;;;;3.60;3.40;;;18.90;80.90;;;;;;10386580;28;20239;-83
2023/06/06 00:50:54;;;;;;;4.03;3.83;;;18.90;81.20;;;;;;10387447;28;20219;-84
2023/06/06 00:55:59;;;;;;;3.80;3.40;;;18.80;81.20;;;;;;10367193;28;20195;-83
2023/06/06 01:01:02;;;;;;;3.50;3.30;;;18.80;82.10;;;;;;10346055;28;20302;-83
2023/06/06 01:06:05;;;;;;;4.07;3.67;;;18.70;82.00;;;;;;10372135;28;20604;-82
2023/06/06 01:11:18;;;;;;;4.27;3.53;;;18.70;81.40;;;;;;10370992;28;20281;-82
2023/06/06 01:16:21;;;;;;;3.70;3.40;;;18.70;80.70;;;;;;10379092;28;20206;-82
2023/06/06 01:21:27;;;;;;;3.63;3.40;;;18.70;81.00;;;;;;10366807;28;20227;-83
2023/06/06 01:26:31;;;;;;;3.90;3.60;;;18.60;80.60;;;;;;10376391;28;20299;-82
2023/06/06 01:31:40;;;;;;;4.00;3.70;;;18.50;80.70;;;;;;10351877;28;20231;-82
2023/06/06 01:36:49;;;;;;;3.83;3.53;;;18.40;80.70;;;;;;10345394;28;20195;-83
2023/06/06 01:41:56;;;;;;;3.50;3.30;;;18.30;81.70;;;;;;10396059;28;20218;-83
2023/06/06 01:47:01;;;;;;;4.13;3.83;;;18.20;82.00;;;;;;10375822;28;20626;-83
2023/06/06 01:52:04;;;;;;;4.10;3.80;;;18.20;81.90;;;;;;10404689;28;20224;-83
2023/06/06 01:57:08;;;;;;;4.50;4.20;;;18.20;82.10;;;;;;10365980;28;20631;-83
2023/06/06 02:02:11;;;;;;;3.93;3.63;;;18.20;82.10;;;;;;10337064;28;20227;-83
2023/06/06 02:07:15;;;;;;;4.40;4.10;;;18.20;82.20;;;;;;10359722;28;20215;-83
2023/06/06 02:12:19;;;;;;;3.30;3.10;;;18.20;82.60;;;;;;10373681;28;20313;-83
2023/06/06 02:17:21;;;;;;;4.13;3.93;;;18.10;82.60;;;;;;10342762;28;20192;-83
2023/06/06 02:22:27;;;;;;;4.93;4.53;;;18.10;82.50;;;;;;10346412;28;20226;-83
2023/06/06 02:27:34;;;;;;;4.07;3.77;;;18.00;82.70;;;;;;10363265;28;20302;-82
2023/06/06 02:32:37;;;;;;;4.83;4.53;;;17.90;83.30;;;;;;10360851;28;20223;-83
2023/06/06 02:37:39;;;;;;;3.93;3.70;;;17.90;83.90;;;;;;10448122;23;20221;-81
2023/06/06 02:42:43;;;;;;;4.00;3.80;;;17.90;83.70;;;;;;10493173;28;20490;-82
2023/06/06 02:47:46;;;;;;;4.03;3.73;;;17.80;83.60;;;;;;10449001;28;20284;-81
2023/06/06 02:52:48;;;;;;;4.40;4.10;;;17.80;84.20;;;;;;10439306;28;20198;-82
2023/06/06 02:57:52;;;;;;;4.90;4.60;;;17.80;84.20;;;;;;10450594;28;20229;-81
2023/06/06 03:02:54;;;;;;;5.03;4.53;;;17.70;84.50;;;;;;10449850;28;20194;-81
2023/06/06 03:07:57;;;;;;;4.27;3.97;;;17.70;84.50;;;;;;10454238;28;20221;-82
2023/06/06 03:13:00;;;;;;;5.30;4.90;;;17.70;85.50;;;;;;10453025;28;20610;-81
2023/06/06 03:18:03;;;;;;;4.07;3.83;;;17.70;85.30;;;;;;10437033;28;20243;-81
2023/06/06 03:23:05;;;;;;;5.00;4.70;;;17.70;85.40;;;;;;10436677;28;20276;-81
2023/06/06 03:28:09;;;;;;;4.80;4.50;;;17.60;85.50;;;;;;10439224;28;20230;-81
2023/06/06 03:33:12;;;;;;;5.60;4.90;;;17.50;85.60;;;;;;10452243;28;20198;-81
2023/06/06 03:38:15;;;;;;;4.37;3.97;;;17.50;86.00;;;;;;10436992;28;20222;-81
2023/06/06 03:43:20;;;;;;;5.37;5.07;;;17.50;85.30;;;;;;10435332;28;20209;-81
2023/06/06 03:48:22;;;;;;;4.70;4.30;;;17.50;85.50;;;;;;10436932;28;20226;-81
2023/06/06 03:53:25;;;;;;;4.10;3.90;;;17.50;86.10;;;;;;10435537;28;20202;-81
2023/06/06 03:58:30;;;;;;;4.47;4.27;;;17.50;85.90;;;;;;10435078;28;20221;-81
2023/06/06 04:03:36;;;;;;;5.00;4.60;;;17.50;85.90;;;;;;10436644;28;20255;-81
2023/06/06 04:08:39;;;;;;;4.77;4.43;;;17.50;85.20;;;;;;10469418;28;20221;-83
2023/06/06 04:13:43;;;;;;;4.97;4.57;;;17.50;84.80;;;;;;10432860;28;20729;-81
2023/06/06 04:18:45;;;;;;;5.17;4.70;;;17.50;85.40;;;;;;10450085;28;20229;-81
2023/06/06 04:23:48;;;;;;;5.97;5.43;;;17.50;84.80;;;;;;10468916;28;20509;-81
2023/06/06 04:28:58;;;;;;;4.60;4.30;;;17.60;85.10;;;;;;10451339;28;20230;-83
2023/06/06 04:34:04;;;;;;;4.93;4.53;;;17.60;84.80;;;;;;10435998;28;20665;-83
2023/06/06 04:39:08;;;;;;;5.10;4.70;;;17.60;84.90;;;;;;10442234;28;20715;-82
2023/06/06 04:44:12;;;;;;;5.37;4.97;;;17.70;84.60;;;;;;10431065;28;20285;-83
2023/06/06 04:49:16;;;;;;;6.03;5.20;;;17.70;84.80;;;;;;10431081;28;20291;-83
2023/06/06 04:54:18;;;;;;;4.50;4.20;;;17.70;84.90;;;;;;10443810;28;20206;-82
2023/06/06 04:59:23;;;;;;;5.97;5.57;;;17.80;84.80;;;;;;10443835;28;20245;-82
2023/06/06 05:04:25;;;;;;;5.47;5.07;;;17.80;89.80;;;;;;10446986;28;20202;-83
2023/06/06 05:09:33;;;;;;;5.90;5.40;;;17.70;90.40;;;;;;10449623;28;20226;-83
2023/06/06 05:14:41;;;;;;;5.50;5.03;;;17.70;89.00;;;;;;10430489;28;20206;-82
2023/06/06 05:19:43;;;;;;;6.50;5.30;;;17.80;90.10;;;;;;10465227;28;20198;-82
2023/06/06 05:24:48;;;;;;;5.90;5.40;;;18.00;90.10;;;;;;10468468;28;20202;-82
2023/06/06 05:29:54;;;;;;;5.67;5.27;;;18.00;89.60;;;;;;10430946;28;20754;-82
2023/06/06 05:34:56;;;;;;;5.80;5.30;;;18.10;89.30;;;;;;10442888;28;20228;-82
2023/06/06 05:39:59;;;;;;;8.43;5.50;;;18.20;88.60;;;;;;10437454;28;20198;-82
2023/06/06 05:45:06;;;;;;;6.40;5.90;;;18.40;89.80;;;;;;10443179;28;20248;-82
2023/06/06 05:50:15;;;;;;;6.30;5.80;;;18.50;88.70;;;;;;10423902;28;20244;-82
2023/06/06 05:55:32;;;;;;;6.13;5.63;;;18.60;89.00;;;;;;10459534;28;20675;-83
2023/06/06 06:00:41;;;;;;;6.23;5.70;;;18.70;87.90;;;;;;10454207;28;20209;-83
2023/06/06 06:05:46;;;;;;;7.53;5.70;;;18.90;87.60;;;;;;10408128;28;20822;-83
2023/06/06 06:10:48;;;;;;;5.40;5.00;;;19.00;86.80;;;;;;10427850;28;20225;-83
2023/06/06 06:15:53;;;;;;;5.70;5.20;;;19.20;84.70;;;;;;10468827;28;20221;-82
2023/06/06 06:20:55;;;;;;;5.80;5.30;;;19.30;83.70;;;;;;10453060;28;20202;-83
2023/06/06 06:25:57;;;;;;;6.50;6.00;;;19.40;81.80;;;;;;10435935;28;20214;-82
2023/06/06 06:31:01;;;;;;;7.90;5.83;;;19.60;84.10;;;;;;10474098;28;20304;-82
2023/06/06 06:36:04;;;;;;;6.00;5.50;;;19.70;83.20;;;;;;10450135;28;20221;-83
2023/06/06 06:41:06;;;;;;;7.00;5.77;;;20.00;80.90;;;;;;10470853;28;20576;-84
2023/06/06 06:46:10;;;;;;;5.30;4.90;;;20.30;79.20;;;;;;10435040;28;20229;-84
2023/06/06 06:51:13;;;;;;;5.30;4.90;;;20.60;78.50;;;;;;10450035;28;20202;-84
2023/06/06 06:56:16;;;;;;;4.83;4.43;;;20.90;76.50;;;;;;10454512;28;20244;-84
2023/06/06 07:01:20;;;;;;;5.43;4.20;;;21.20;76.30;;;;;;10444439;28;20198;-84
2023/06/06 07:06:23;;;;;;;5.13;4.73;;;21.40;75.90;;;;;;10442050;28;20222;-84
2023/06/06 07:11:25;;;;;;;5.03;4.60;;;21.60;75.60;;;;;;10464389;28;20209;-84
2023/06/06 07:16:31;;;;;;;4.83;4.47;;;21.90;75.10;;;;;;10460533;28;20229;-84
2023/06/06 07:21:33;;;;;;;5.60;5.00;;;22.20;72.00;;;;;;10444402;28;20501;-84
2023/06/06 07:26:35;;;;;;;3.90;3.70;;;22.60;71.00;;;;;;10444270;28;20280;-85
2023/06/06 07:31:43;;;;;;;4.53;4.10;;;23.10;70.70;;;;;;10430375;28;20289;-84
2023/06/06 07:36:46;;;;;;;5.30;4.23;;;23.60;68.10;;;;;;10455220;28;20716;-85
2023/06/06 07:41:48;;;;;;;4.43;4.03;;;23.90;67.80;;;;;;10424756;28;20678;-84
2023/06/06 07:46:51;;;;;;;4.00;3.60;;;24.50;66.50;;;;;;10443512;28;20590;-84
2023/06/06 07:51:53;;;;;;;4.27;3.97;;;24.90;62.10;;;;;;10444041;28;20569;-85
2023/06/06 07:56:59;;;;;;;4.07;3.67;;;25.30;61.50;;;;;;10427713;28;20309;-84
2023/06/06 08:02:03;;;;;;;3.67;3.20;;;25.50;62.50;;;;;;10444884;28;20196;-85
2023/06/06 08:07:05;;;;;;;3.20;3.00;;;25.90;61.10;;;;;;10425600;28;20256;-85
2023/06/06 08:12:08;;;;;;;4.50;4.10;;;26.30;59.30;;;;;;10440617;28;20210;-85
2023/06/06 08:17:13;;;;;;;3.83;3.57;;;26.80;59.00;;;;;;10441221;28;20286;-85
2023/06/06 08:22:15;;;;;;;3.50;3.30;;;27.00;56.70;;;;;;10458787;28;20199;-84
2023/06/06 08:27:18;;;;;;;3.60;3.27;;;27.20;57.30;;;;;;10425601;28;20258;-85
2023/06/06 08:32:21;;;;;;;4.23;3.90;;;27.40;57.40;;;;;;10422928;28;20229;-84
2023/06/06 08:37:24;;;;;;;4.20;3.80;;;27.60;56.30;;;;;;10423318;28;20248;-85
2023/06/06 08:42:28;;;;;;;4.50;4.20;;;27.80;57.50;;;;;;10439571;28;20272;-85
2023/06/06 08:47:33;;;;;;;4.57;4.07;;;28.00;55.50;;;;;;10421413;28;20316;-85
2023/06/06 08:52:36;;;;;;;4.40;4.00;;;27.90;55.90;;;;;;10420512;28;20595;-85
2023/06/06 08:57:41;;;;;;;5.63;4.17;;;28.00;55.40;;;;;;10453680;28;20230;-85
2023/06/06 09:02:45;;;;;;;4.03;3.73;;;28.20;55.70;;;;;;10434510;28;20616;-85
2023/06/06 09:07:49;;;;;;;3.90;3.60;;;28.40;55.50;;;;;;10417451;28;20222;-85
2023/06/06 09:12:51;;;;;;;4.53;4.13;;;28.70;56.10;;;;;;10417731;28;20206;-84
2023/06/06 09:17:55;;;;;;;3.90;3.57;;;29.20;54.40;;;;;;10433833;28;20297;-85
2023/06/06 09:23:00;;;;;;;4.40;4.07;;;29.50;55.30;;;;;;10417104;28;20202;-85
2023/06/06 09:28:03;;;;;;;3.77;3.47;;;29.70;53.30;;;;;;10416304;28;20218;-85
2023/06/06 09:33:06;;;;;;;4.47;3.90;;;30.00;53.10;;;;;;10416688;28;20674;-85
2023/06/06 09:38:14;;;;;;;3.00;2.70;;;30.30;51.10;;;;;;10417505;28;20830;-85
2023/06/06 09:43:23;;;;;;;4.20;3.90;;;30.80;52.00;;;;;;10416880;28;20224;-86
2023/06/06 09:48:28;;;;;;;3.70;3.23;;;31.50;51.30;;;;;;10433062;28;20221;-85
2023/06/06 09:53:31;;;;;;;3.20;3.00;;;32.50;48.40;;;;;;10416450;28;20259;-85
2023/06/06 09:58:36;;;;;;;4.90;3.27;;;33.50;47.10;;;;;;10416417;28;20214;-84
2023/06/06 10:03:41;;;;;;;4.53;3.40;;;34.40;45.80;;;;;;10415986;28;20228;-86
2023/06/06 10:08:44;;;;;;;3.45;3.22;;;35.20;44.80;;;;;;10416427;28;20221;-85
2023/06/06 10:13:47;;;;;;;3.60;3.40;;;36.00;44.50;;;;;;10416082;28;20213;-86
2023/06/06 10:18:52;;;;;;;3.65;3.35;;;36.80;44.30;;;;;;10450349;28;20275;-85
2023/06/06 10:23:55;;;;;;;3.43;2.97;;;36.90;42.90;;;;;;10432749;28;20225;-84
2023/06/06 10:29:04;;;;;;;4.03;3.73;;;35.20;42.90;;;;;;10432723;28;20225;-85
2023/06/06 10:34:11;;;;;;;4.30;4.00;;;33.20;44.70;;;;;;10399185;28;20202;-85
2023/06/06 10:39:19;;;;;;;4.00;3.70;;;31.70;46.30;;;;;;10436786;28;20257;-85
2023/06/06 10:44:27;;;;;;;4.23;3.80;;;30.40;47.90;;;;;;10460344;28;20198;-85
2023/06/06 10:49:31;;;;;;;4.20;3.80;;;29.40;49.10;;;;;;10437449;28;20324;-85
2023/06/06 10:54:35;;;;;;;4.00;3.70;;;28.60;50.20;;;;;;10451012;28;20438;-84
2023/06/06 10:59:37;;;;;;;5.97;3.83;;;27.90;51.60;;;;;;10436039;28;20578;-85
2023/06/06 11:04:40;;;;;;;7.33;4.23;;;27.40;51.90;;;;;;10430720;28;20224;-85
2023/06/06 11:09:48;;;;;;;4.13;3.83;;;27.00;51.30;;;;;;10451013;28;20257;-85
2023/06/06 11:14:58;;;;;;;4.83;4.03;;;26.60;51.30;;;;;;10455397;28;20208;-84
2023/06/06 11:20:03;;;;;;;5.87;4.07;;;26.40;53.30;;;;;;10456653;28;20270;-85
2023/06/06 11:25:07;;;;;;;4.40;4.00;;;26.20;52.20;;;;;;10453159;28;20218;-85
2023/06/06 11:30:14;;;;;;;4.30;3.90;;;26.10;52.40;;;;;;10447876;28;20243;-84
2023/06/06 11:35:18;;;;;;;4.77;4.33;;;26.20;52.60;;;;;;10454359;28;20252;-84
2023/06/06 11:40:20;;;;;;;7.97;4.03;;;26.20;53.70;;;;;;10437751;28;20591;-85
2023/06/06 11:45:22;;;;;;;4.43;4.13;;;26.20;53.90;;;;;;10445171;28;20256;-84
2023/06/06 11:50:29;;;;;;;4.70;4.30;;;26.20;53.10;;;;;;10445237;28;20225;-84
2023/06/06 11:55:39;;;;;;;4.20;3.90;;;26.10;52.60;;;;;;10444737;28;20238;-85
2023/06/06 12:00:42;;;;;;;4.77;4.43;;;26.00;53.20;;;;;;10444159;28;20280;-85
2023/06/06 12:05:59;;;;;;;5.00;3.30;;;26.00;53.30;;;;;;10427965;28;20222;-85
2023/06/06 12:11:26;;;;;;;5.03;3.80;;;26.00;49.40;;;;;;10427761;28;20221;-85
2023/06/06 12:16:29;;;;;;;4.63;4.20;;;26.00;50.90;;;;;;10442610;28;20213;-85
2023/06/06 12:21:46;;;;;;;4.33;4.00;;;25.90;51.40;;;;;;10427800;28;20206;-85
2023/06/06 12:26:53;;;;;;;5.23;4.13;;;26.00;51.80;;;;;;10449276;28;20275;-85
2023/06/06 12:32:13;;;;;;;4.10;3.80;;;26.00;52.10;;;;;;10424122;28;20226;-85
2023/06/06 12:37:17;;;;;;;4.70;4.17;;;25.80;51.50;;;;;;10399533;28;20230;-85
2023/06/06 12:42:20;;;;;;;4.67;4.17;;;25.80;51.80;;;;;;10448902;28;20913;-85
2023/06/06 12:47:23;;;;;;;4.77;4.37;;;25.70;52.00;;;;;;10432708;28;20214;-84
2023/06/06 12:52:27;;;;;;;6.20;4.23;;;25.70;51.50;;;;;;10430866;28;20627;-85
2023/06/06 12:57:29;;;;;;;4.70;4.30;;;25.60;53.00;;;;;;10385080;28;20230;-84
2023/06/06 13:02:32;;;;;;;6.00;4.07;;;25.50;54.10;;;;;;10413694;28;20671;-85
2023/06/06 13:07:37;;;;;;;4.63;4.30;;;25.40;53.20;;;;;;10427195;28;20225;-85
2023/06/06 13:12:41;;;;;;;4.03;3.73;;;25.30;52.40;;;;;;10459912;28;20208;-85
2023/06/06 13:17:43;;;;;;;4.80;4.33;;;25.20;52.90;;;;;;10423771;28;20228;-85
2023/06/06 13:22:46;;;;;;;4.20;3.90;;;25.20;52.80;;;;;;10443258;28;20209;-85
2023/06/06 13:27:49;;;;;;;4.83;4.20;;;25.20;53.60;;;;;;10426360;28;20282;-85
2023/06/06 13:32:51;;;;;;;4.70;4.40;;;25.20;53.10;;;;;;10423000;28;20202;-85
2023/06/06 13:37:54;;;;;;;5.43;4.67;;;25.30;54.00;;;;;;10439381;28;20261;-85
2023/06/06 13:42:57;;;;;;;4.37;4.07;;;25.40;53.10;;;;;;10422586;28;20604;-85
2023/06/06 13:47:59;;;;;;;4.17;3.87;;;25.40;53.30;;;;;;10422584;28;20233;-85
2023/06/06 13:53:03;;;;;;;4.03;3.73;;;25.50;52.50;;;;;;10423961;28;20230;-85
2023/06/06 13:58:07;;;;;;;4.30;3.97;;;25.70;52.30;;;;;;10426407;28;20217;-85
2023/06/06 14:03:09;;;;;;;5.13;4.40;;;25.80;53.00;;;;;;10459983;28;20190;-85
2023/06/06 14:08:13;;;;;;;4.63;4.03;;;25.90;51.50;;;;;;10425021;28;20229;-85
2023/06/06 14:13:15;;;;;;;4.20;3.80;;;25.80;52.90;;;;;;10418100;28;20206;-84
2023/06/06 14:18:18;;;;;;;4.17;3.87;;;25.70;52.80;;;;;;10446110;28;20309;-85
2023/06/06 14:23:21;;;;;;;4.90;4.50;;;25.60;52.90;;;;;;10446246;28;20206;-85
2023/06/06 14:28:23;;;;;;;4.30;3.90;;;25.50;52.80;;;;;;10447116;28;20225;-85
2023/06/06 14:33:26;;;;;;;4.30;4.00;;;25.30;52.80;;;;;;10448183;28;20204;-85
2023/06/06 14:38:32;;;;;;;4.33;3.93;;;25.40;51.70;;;;;;10472813;23;20715;-86
2023/06/06 14:43:34;;;;;;;5.83;3.60;;;25.50;51.20;;;;;;10432753;28;20209;-86
2023/06/06 14:48:36;;;;;;;3.60;3.40;;;25.50;51.60;;;;;;10429506;28;20233;-87
2023/06/06 14:53:40;;;;;;;6.00;4.30;;;25.30;53.20;;;;;;10421275;28;20201;-86
2023/06/06 14:58:43;;;;;;;4.17;3.87;;;25.10;53.20;;;;;;10421522;28;20669;-86
2023/06/06 15:03:50;;;;;;;4.13;3.53;;;25.00;52.40;;;;;;10420958;28;20662;-86
2023/06/06 15:08:54;;;;;;;4.60;3.50;;;24.80;53.50;;;;;;10436820;28;20325;-87
2023/06/06 15:13:56;;;;;;;3.67;3.37;;;24.80;52.60;;;;;;10422704;28;20251;-87
2023/06/06 15:18:58;;;;;;;3.93;3.43;;;24.70;51.60;;;;;;10426115;28;20230;-87
2023/06/06 15:24:02;;;;;;;3.93;3.33;;;24.80;51.30;;;;;;10419911;28;20201;-86
2023/06/06 15:29:04;;;;;;;2.80;2.60;;;24.80;52.10;;;;;;10436368;28;20233;-87
2023/06/06 15:34:06;;;;;;;3.20;2.97;;;24.90;51.40;;;;;;10420321;28;20233;-86
2023/06/06 15:39:11;;;;;;;3.77;3.47;;;24.90;50.20;;;;;;10419369;28;20226;-87
2023/06/06 15:44:13;;;;;;;3.07;2.87;;;24.90;50.00;;;;;;10407714;28;20290;-86
2023/06/06 15:55:35;;;;;;;4.73;3.43;;;24.90;49.40;;;;;;11361562;22;20245;-84
2023/06/06 16:00:37;;;;;;;3.17;2.97;;;24.90;49.90;;;;;;11483275;23;20356;-85
2023/06/06 16:05:39;;;;;;;6.73;3.90;;;24.90;51.40;;;;;;10403301;28;20253;-85
2023/06/06 16:10:42;;;;;;;7.23;3.47;;;24.90;50.70;;;;;;10426216;28;20242;-84
2023/06/06 16:15:45;;;;;;;3.40;3.10;;;24.90;50.20;;;;;;10423749;28;20202;-82
2023/06/06 16:20:48;;;;;;;4.60;3.37;;;24.90;50.50;;;;;;10429179;28;20318;-83
2023/06/06 16:25:52;;;;;;;3.87;3.57;;;24.80;50.80;;;;;;10399854;28;20564;-84
2023/06/06 16:30:56;;;;;;;3.80;3.50;;;24.70;50.70;;;;;;10414361;28;20347;-83
2023/06/06 16:36:00;;;;;;;6.73;3.37;;;24.60;50.40;;;;;;10416211;28;20210;-82
2023/06/06 16:41:03;;;;;;;3.50;3.20;;;24.50;51.10;;;;;;10410094;28;20705;-81
2023/06/06 16:46:06;;;;;;;4.33;3.60;;;24.40;52.20;;;;;;10412794;28;20206;-83
2023/06/06 16:51:08;;;;;;;5.73;3.40;;;24.40;52.30;;;;;;10419031;28;20277;-85
2023/06/06 16:56:11;;;;;;;3.83;3.53;;;24.40;52.20;;;;;;10390493;28;20202;-85
2023/06/06 17:01:13;;;;;;;4.10;3.80;;;24.30;52.70;;;;;;10411224;28;20240;-83
2023/06/06 17:06:16;;;;;;;4.47;4.07;;;24.30;52.20;;;;;;10412831;28;20234;-85
2023/06/06 17:11:19;;;;;;;3.20;3.00;;;24.30;53.00;;;;;;10415482;28;20230;-84
2023/06/06 17:16:22;;;;;;;3.83;3.53;;;24.30;52.70;;;;;;10414824;28;20203;-83
2023/06/06 17:21:24;;;;;;;5.03;3.73;;;24.20;53.50;;;;;;10423563;28;20286;-84
2023/06/06 17:26:28;;;;;;;3.10;2.90;;;24.30;53.80;;;;;;10401556;28;20638;-84
2023/06/06 17:31:31;;;;;;;4.33;3.20;;;24.10;55.00;;;;;;10398483;28;20619;-83
2023/06/06 17:36:35;;;;;;;3.30;3.10;;;24.00;55.40;;;;;;10419157;28;20643;-84
2023/06/06 17:41:38;;;;;;;3.53;3.33;;;23.90;56.20;;;;;;10419737;28;20214;-82
2023/06/06 17:46:41;;;;;;;3.37;3.17;;;23.90;56.00;;;;;;10402369;28;20215;-84
2023/06/06 17:51:43;;;;;;;4.40;4.00;;;23.80;57.00;;;;;;10426313;28;20646;-84
2023/06/06 17:56:46;;;;;;;4.73;3.57;;;23.80;56.30;;;;;;10428752;28;20213;-84
2023/06/06 18:01:48;;;;;;;3.90;3.40;;;23.70;57.40;;;;;;10424083;28;20218;-82
2023/06/06 18:06:50;;;;;;;3.10;2.90;;;23.70;57.20;;;;;;10415299;28;20209;-83
2023/06/06 18:11:54;;;;;;;3.40;3.20;;;23.60;57.00;;;;;;10397390;28;20218;-82
2023/06/06 18:16:56;;;;;;;3.63;3.43;;;23.50;57.40;;;;;;10407659;28;20221;-82
2023/06/06 18:21:58;;;;;;;4.13;3.80;;;23.50;57.10;;;;;;10432388;28;20234;-82
2023/06/06 18:27:02;;;;;;;3.57;3.37;;;23.40;58.20;;;;;;10416565;28;20229;-83
2023/06/06 18:32:05;;;;;;;3.90;3.60;;;23.30;59.40;;;;;;10420565;28;20249;-84
2023/06/06 18:37:07;;;;;;;4.23;3.93;;;23.20;60.00;;;;;;10397269;28;20206;-85
2023/06/06 18:42:11;;;;;;;5.30;4.80;;;23.20;61.10;;;;;;10415587;28;20246;-85
2023/06/06 18:47:13;;;;;;;4.50;4.17;;;23.00;63.20;;;;;;10409751;28;20203;-85
2023/06/06 18:52:15;;;;;;;4.00;3.60;;;23.00;64.20;;;;;;10386224;28;20322;-85
2023/06/06 18:57:37;;;;;;;3.90;3.60;;;22.90;64.30;;;;;;9493151;28;10000997;-85
2023/06/06 19:02:58;;;;;;;4.13;3.83;;;22.80;64.00;;;;;;10326726;28;20243;-85
2023/06/06 19:08:01;;;;;;;4.30;4.00;;;22.70;63.40;;;;;;10306745;28;20208;-85
2023/06/06 19:13:05;;;;;;;3.50;3.30;;;22.70;66.60;;;;;;10303447;28;20238;-85
2023/06/06 19:18:07;;;;;;;3.90;3.60;;;22.60;65.30;;;;;;10338153;28;20306;-86
2023/06/06 19:23:10;;;;;;;3.13;2.93;;;22.50;65.10;;;;;;10295217;28;20235;-85
2023/06/06 19:28:14;;;;;;;4.00;3.63;;;22.40;64.90;;;;;;10316469;28;20219;-86
2023/06/06 19:38:52;;;;;;;3.80;3.57;;;22.10;65.70;;;;;;11167256;23;20270;-85
2023/06/06 19:43:55;;;;;;;3.63;3.33;;;22.00;66.60;;;;;;10335438;28;20567;-86
2023/06/06 19:48:57;;;;;;;3.77;3.57;;;21.90;66.60;;;;;;10332499;28;20923;-85
2023/06/06 19:54:00;;;;;;;3.90;3.60;;;21.80;67.10;;;;;;10331423;28;20219;-85
2023/06/06 19:59:03;;;;;;;4.17;3.77;;;21.70;67.20;;;;;;10327643;28;20595;-84
2023/06/06 20:04:06;;;;;;;3.90;3.60;;;21.60;68.30;;;;;;10328336;28;20630;-85
2023/06/06 20:09:08;;;;;;;3.83;3.43;;;21.50;68.40;;;;;;10340727;28;20250;-86
2023/06/06 20:14:11;;;;;;;8.37;4.07;;;21.40;68.50;;;;;;10310093;28;20271;-86
2023/06/06 20:19:13;;;;;;;4.43;4.13;;;21.30;71.00;;;;;;10334595;28;20228;-85
2023/06/06 20:24:16;;;;;;;4.50;3.80;;;21.30;69.90;;;;;;10314553;28;20218;-86
2023/06/06 20:29:19;;;;;;;4.50;4.00;;;21.20;69.80;;;;;;10339317;28;20227;-85
2023/06/06 20:34:21;;;;;;;5.73;3.63;;;21.00;70.10;;;;;;10338906;28;20258;-85
2023/06/06 20:39:33;;;;;;;4.93;4.40;;;21.00;70.80;;;;;;10345574;28;20614;-86
2023/06/06 20:44:37;;;;;;;3.90;3.60;;;21.00;70.40;;;;;;10310733;28;20570;-84
2023/06/06 20:49:39;;;;;;;4.33;4.00;;;20.90;70.30;;;;;;10343998;28;20235;-84
2023/06/06 20:54:41;;;;;;;4.73;4.33;;;20.80;71.00;;;;;;10316076;28;20243;-85
2023/06/06 20:59:45;;;;;;;3.97;3.67;;;20.70;72.50;;;;;;10325611;28;21714;-85
2023/06/06 21:04:47;;;;;;;9.53;3.67;;;20.60;71.10;;;;;;10356021;28;20204;-85
2023/06/06 21:09:49;;;;;;;4.60;4.20;;;20.50;71.10;;;;;;10343032;28;20838;-85
2023/06/06 21:14:52;;;;;;;4.00;3.60;;;20.50;71.90;;;;;;10361052;28;20227;-85
2023/06/06 21:19:55;;;;;;;4.97;3.90;;;20.40;71.90;;;;;;10332217;28;20277;-85
2023/06/06 21:24:57;;;;;;;4.43;4.13;;;20.40;71.60;;;;;;10332133;28;20238;-86
2023/06/06 21:30:01;;;;;;;5.30;4.27;;;20.30;72.20;;;;;;10321911;28;20689;-86
2023/06/06 21:35:03;;;;;;;3.50;3.30;;;20.20;72.50;;;;;;10351949;28;20203;-86
2023/06/06 21:40:06;;;;;;;4.07;3.77;;;20.10;73.20;;;;;;10332874;28;20231;-86
2023/06/06 21:45:11;;;;;;;4.20;3.90;;;20.10;73.60;;;;;;10325739;28;20529;-86
2023/06/06 21:50:13;;;;;;;6.20;4.17;;;20.00;72.60;;;;;;10332604;28;20224;-86
2023/06/06 21:55:15;;;;;;;5.13;4.40;;;19.90;74.20;;;;;;10305860;28;20227;-85
2023/06/06 22:00:22;;;;;;;4.80;4.40;;;19.80;73.50;;;;;;10334204;28;20220;-84
2023/06/06 22:05:24;;;;;;;4.70;4.30;;;19.80;74.00;;;;;;10340737;28;20211;-85
2023/06/06 22:10:26;;;;;;;5.70;3.63;;;19.80;73.60;;;;;;10368776;28;20239;-86
2023/06/06 22:15:30;;;;;;;3.70;3.50;;;19.60;73.20;;;;;;10321457;28;20207;-85
2023/06/06 22:20:32;;;;;;;5.00;4.50;;;19.60;73.90;;;;;;10333822;28;20352;-86
2023/06/06 22:25:34;;;;;;;4.70;4.30;;;19.50;73.80;;;;;;10339103;28;20214;-84
2023/06/06 22:30:38;;;;;;;4.80;4.33;;;19.50;73.50;;;;;;10343482;28;20275;-86
2023/06/06 22:35:40;;;;;;;4.17;3.77;;;19.40;73.70;;;;;;10360926;28;20203;-87
2023/06/06 22:40:44;;;;;;;3.73;3.43;;;19.40;73.80;;;;;;10327260;28;20224;-87
2023/06/06 22:45:48;;;;;;;4.27;3.87;;;19.30;74.60;;;;;;10371161;28;20217;-85
2023/06/06 22:50:50;;;;;;;4.00;3.70;;;19.30;74.20;;;;;;10400020;28;20223;-86
2023/06/06 22:55:52;;;;;;;4.70;4.30;;;19.20;75.30;;;;;;10387057;28;20283;-85
2023/06/06 23:00:56;;;;;;;4.23;3.83;;;19.20;76.00;;;;;;10344213;28;20250;-86
2023/06/06 23:05:58;;;;;;;4.20;3.90;;;19.10;76.90;;;;;;10366117;28;20257;-87
2023/06/06 23:11:00;;;;;;;4.20;3.90;;;19.10;76.00;;;;;;10338464;28;20223;-86
2023/06/06 23:16:04;;;;;;;4.93;4.57;;;19.00;76.20;;;;;;10349993;28;20758;-86
2023/06/06 23:21:06;;;;;;;5.03;4.63;;;19.00;76.40;;;;;;10321689;28;20212;-85
2023/06/06 23:26:08;;;;;;;4.50;4.20;;;19.00;76.90;;;;;;10338967;28;20234;-86
2023/06/06 23:31:11;;;;;;;4.70;4.30;;;19.00;76.70;;;;;;10344463;28;20588;-86
2023/06/06 23:36:14;;;;;;;4.53;4.23;;;18.90;76.70;;;;;;10332676;28;20226;-85
2023/06/06 23:41:16;;;;;;;4.00;3.77;;;18.90;77.50;;;;;;10356451;28;20204;-85
2023/06/06 23:46:20;;;;;;;5.13;4.73;;;18.80;77.20;;;;;;10343737;28;20287;-86
2023/06/06 23:51:22;;;;;;;4.40;4.10;;;18.70;77.10;;;;;;10341761;28;20614;-86
2023/06/06 23:56:25;;;;;;;4.53;4.23;;;18.70;77.80;;;;;;10336302;28;20270;-86
